sensor_id;sensor_type;location;lat;lon;timestamp;pressure;altitude;pressure_sealevel;temperature
41593;BMP180;28026;48.562;14.440;2023-04-07T00:01:08;93705.00;;;9.70
41593;BMP180;28026;48.562;14.440;2023-04-07T00:03:38;93707.00;;;9.60
41593;BMP180;28026;48.562;14.440;2023-04-07T00:06:10;93705.00;;;9.60
41593;BMP180;28026;48.562;14.440;2023-04-07T00:08:41;93697.00;;;9.50
41593;BMP180;28026;48.562;14.440;2023-04-07T00:11:13;93698.00;;;9.50
41593;BMP180;28026;48.562;14.440;2023-04-07T00:13:44;93703.00;;;9.50
41593;BMP180;28026;48.562;14.440;2023-04-07T00:16:15;93688.00;;;9.50
41593;BMP180;28026;48.562;14.440;2023-04-07T00:18:46;93696.00;;;9.50
41593;BMP180;28026;48.562;14.440;2023-04-07T00:21:17;93689.00;;;9.50
41593;BMP180;28026;48.562;14.440;2023-04-07T00:23:48;93693.00;;;9.40
41593;BMP180;28026;48.562;14.440;2023-04-07T00:26:19;93691.00;;;9.40
41593;BMP180;28026;48.562;14.440;2023-04-07T00:28:49;93695.00;;;9.40
41593;BMP180;28026;48.562;14.440;2023-04-07T00:31:20;93683.00;;;9.40
41593;BMP180;28026;48.562;14.440;2023-04-07T00:33:51;93694.00;;;9.40
41593;BMP180;28026;48.562;14.440;2023-04-07T00:36:23;93681.00;;;9.30
41593;BMP180;28026;48.562;14.440;2023-04-07T00:38:53;93690.00;;;9.30
41593;BMP180;28026;48.562;14.440;2023-04-07T00:41:24;93683.00;;;9.30
41593;BMP180;28026;48.562;14.440;2023-04-07T00:43:55;93678.00;;;9.30
41593;BMP180;28026;48.562;14.440;2023-04-07T00:46:27;93673.00;;;9.30
41593;BMP180;28026;48.562;14.440;2023-04-07T00:48:58;93676.00;;;9.30
41593;BMP180;28026;48.562;14.440;2023-04-07T00:51:30;93669.00;;;9.30
41593;BMP180;28026;48.562;14.440;2023-04-07T00:54:01;93682.00;;;9.20
41593;BMP180;28026;48.562;14.440;2023-04-07T00:56:33;93673.00;;;9.30
41593;BMP180;28026;48.562;14.440;2023-04-07T00:59:04;93665.00;;;9.20
41593;BMP180;28026;48.562;14.440;2023-04-07T01:01:47;93669.00;;;9.20
41593;BMP180;28026;48.562;14.440;2023-04-07T01:04:31;93663.00;;;9.20
41593;BMP180;28026;48.562;14.440;2023-04-07T01:07:27;93665.00;;;9.20
41593;BMP180;28026;48.562;14.440;2023-04-07T01:10:08;93665.00;;;9.10
41593;BMP180;28026;48.562;14.440;2023-04-07T01:13:02;93663.00;;;9.10
41593;BMP180;28026;48.562;14.440;2023-04-07T01:15:39;93660.00;;;9.10
41593;BMP180;28026;48.562;14.440;2023-04-07T01:18:21;93656.00;;;9.10
41593;BMP180;28026;48.562;14.440;2023-04-07T01:21:02;93652.00;;;9.00
41593;BMP180;28026;48.562;14.440;2023-04-07T01:24:02;93655.00;;;9.00
41593;BMP180;28026;48.562;14.440;2023-04-07T01:26:49;93651.00;;;9.00
41593;BMP180;28026;48.562;14.440;2023-04-07T01:32:09;93655.00;;;8.90
41593;BMP180;28026;48.562;14.440;2023-04-07T01:34:44;93652.00;;;8.90
41593;BMP180;28026;48.562;14.440;2023-04-07T01:37:19;93654.00;;;8.90
41593;BMP180;28026;48.562;14.440;2023-04-07T01:39:51;93659.00;;;8.90
41593;BMP180;28026;48.562;14.440;2023-04-07T01:42:24;93656.00;;;8.90
41593;BMP180;28026;48.562;14.440;2023-04-07T01:44:57;93643.00;;;8.90
41593;BMP180;28026;48.562;14.440;2023-04-07T01:47:30;93653.00;;;8.90
41593;BMP180;28026;48.562;14.440;2023-04-07T01:50:03;93648.00;;;8.80
41593;BMP180;28026;48.562;14.440;2023-04-07T01:52:37;93644.00;;;8.80
41593;BMP180;28026;48.562;14.440;2023-04-07T01:55:09;93642.00;;;8.80
41593;BMP180;28026;48.562;14.440;2023-04-07T01:57:40;93634.00;;;8.80
41593;BMP180;28026;48.562;14.440;2023-04-07T02:00:12;93630.00;;;8.80
41593;BMP180;28026;48.562;14.440;2023-04-07T02:02:45;93641.00;;;8.80
41593;BMP180;28026;48.562;14.440;2023-04-07T02:05:22;93629.00;;;8.70
41593;BMP180;28026;48.562;14.440;2023-04-07T02:08:07;93636.00;;;8.70
41593;BMP180;28026;48.562;14.440;2023-04-07T02:10:40;93633.00;;;8.70
41593;BMP180;28026;48.562;14.440;2023-04-07T02:13:17;93627.00;;;8.70
41593;BMP180;28026;48.562;14.440;2023-04-07T02:15:52;93627.00;;;8.70
41593;BMP180;28026;48.562;14.440;2023-04-07T02:18:26;93621.00;;;8.60
41593;BMP180;28026;48.562;14.440;2023-04-07T02:21:00;93622.00;;;8.60
41593;BMP180;28026;48.562;14.440;2023-04-07T02:23:34;93622.00;;;8.60
41593;BMP180;28026;48.562;14.440;2023-04-07T02:26:05;93629.00;;;8.60
41593;BMP180;28026;48.562;14.440;2023-04-07T02:28:36;93625.00;;;8.50
41593;BMP180;28026;48.562;14.440;2023-04-07T02:31:07;93622.00;;;8.50
41593;BMP180;28026;48.562;14.440;2023-04-07T02:33:38;93618.00;;;8.50
41593;BMP180;28026;48.562;14.440;2023-04-07T02:36:09;93610.00;;;8.40
41593;BMP180;28026;48.562;14.440;2023-04-07T02:38:40;93613.00;;;8.40
41593;BMP180;28026;48.562;14.440;2023-04-07T02:41:11;93615.00;;;8.40
41593;BMP180;28026;48.562;14.440;2023-04-07T02:43:42;93620.00;;;8.40
41593;BMP180;28026;48.562;14.440;2023-04-07T02:46:13;93612.00;;;8.40
41593;BMP180;28026;48.562;14.440;2023-04-07T02:48:44;93612.00;;;8.30
41593;BMP180;28026;48.562;14.440;2023-04-07T02:51:14;93614.00;;;8.30
41593;BMP180;28026;48.562;14.440;2023-04-07T02:53:45;93606.00;;;8.40
41593;BMP180;28026;48.562;14.440;2023-04-07T02:56:16;93604.00;;;8.40
41593;BMP180;28026;48.562;14.440;2023-04-07T02:58:47;93604.00;;;8.30
41593;BMP180;28026;48.562;14.440;2023-04-07T03:01:18;93605.00;;;8.30
41593;BMP180;28026;48.562;14.440;2023-04-07T03:03:49;93603.00;;;8.30
41593;BMP180;28026;48.562;14.440;2023-04-07T03:06:20;93596.00;;;8.40
41593;BMP180;28026;48.562;14.440;2023-04-07T03:08:51;93591.00;;;8.30
41593;BMP180;28026;48.562;14.440;2023-04-07T03:11:21;93598.00;;;8.20
41593;BMP180;28026;48.562;14.440;2023-04-07T03:13:52;93591.00;;;8.00
41593;BMP180;28026;48.562;14.440;2023-04-07T03:16:23;93600.00;;;8.00
41593;BMP180;28026;48.562;14.440;2023-04-07T03:18:54;93600.00;;;8.10
41593;BMP180;28026;48.562;14.440;2023-04-07T03:21:25;93587.00;;;8.10
41593;BMP180;28026;48.562;14.440;2023-04-07T03:23:58;93595.00;;;8.10
41593;BMP180;28026;48.562;14.440;2023-04-07T03:26:29;93595.00;;;8.10
41593;BMP180;28026;48.562;14.440;2023-04-07T03:29:00;93590.00;;;8.10
41593;BMP180;28026;48.562;14.440;2023-04-07T03:31:31;93597.00;;;8.00
41593;BMP180;28026;48.562;14.440;2023-04-07T03:34:02;93591.00;;;7.90
41593;BMP180;28026;48.562;14.440;2023-04-07T03:36:34;93591.00;;;7.90
41593;BMP180;28026;48.562;14.440;2023-04-07T03:39:04;93583.00;;;7.90
41593;BMP180;28026;48.562;14.440;2023-04-07T03:41:36;93587.00;;;8.00
41593;BMP180;28026;48.562;14.440;2023-04-07T03:44:06;93576.00;;;8.00
41593;BMP180;28026;48.562;14.440;2023-04-07T03:46:37;93590.00;;;8.00
41593;BMP180;28026;48.562;14.440;2023-04-07T03:49:08;93585.00;;;8.00
41593;BMP180;28026;48.562;14.440;2023-04-07T03:51:39;93586.00;;;8.00
41593;BMP180;28026;48.562;14.440;2023-04-07T03:54:10;93576.00;;;8.00
41593;BMP180;28026;48.562;14.440;2023-04-07T03:56:41;93584.00;;;8.10
41593;BMP180;28026;48.562;14.440;2023-04-07T03:59:12;93587.00;;;8.10
41593;BMP180;28026;48.562;14.440;2023-04-07T04:01:43;93581.00;;;8.10
41593;BMP180;28026;48.562;14.440;2023-04-07T04:04:13;93567.00;;;8.10
41593;BMP180;28026;48.562;14.440;2023-04-07T04:06:44;93577.00;;;8.20
41593;BMP180;28026;48.562;14.440;2023-04-07T04:09:16;93573.00;;;8.20
41593;BMP180;28026;48.562;14.440;2023-04-07T04:11:47;93579.00;;;8.20
41593;BMP180;28026;48.562;14.440;2023-04-07T04:14:18;93564.00;;;8.20
41593;BMP180;28026;48.562;14.440;2023-04-07T04:16:49;93572.00;;;8.20
41593;BMP180;28026;48.562;14.440;2023-04-07T04:19:19;93582.00;;;8.20
41593;BMP180;28026;48.562;14.440;2023-04-07T04:21:50;93572.00;;;8.20
41593;BMP180;28026;48.562;14.440;2023-04-07T04:24:21;93568.00;;;8.10
41593;BMP180;28026;48.562;14.440;2023-04-07T04:26:52;93576.00;;;8.10
41593;BMP180;28026;48.562;14.440;2023-04-07T04:29:23;93570.00;;;8.10
41593;BMP180;28026;48.562;14.440;2023-04-07T04:31:54;93572.00;;;8.10
41593;BMP180;28026;48.562;14.440;2023-04-07T04:34:25;93569.00;;;8.10
41593;BMP180;28026;48.562;14.440;2023-04-07T04:36:57;93561.00;;;8.10
41593;BMP180;28026;48.562;14.440;2023-04-07T04:39:27;93574.00;;;8.20
41593;BMP180;28026;48.562;14.440;2023-04-07T04:41:58;93570.00;;;8.20
41593;BMP180;28026;48.562;14.440;2023-04-07T04:44:30;93561.00;;;8.20
41593;BMP180;28026;48.562;14.440;2023-04-07T04:47:01;93572.00;;;8.30
41593;BMP180;28026;48.562;14.440;2023-04-07T04:49:32;93570.00;;;8.30
41593;BMP180;28026;48.562;14.440;2023-04-07T04:52:03;93565.00;;;8.30
41593;BMP180;28026;48.562;14.440;2023-04-07T04:54:34;93561.00;;;8.30
41593;BMP180;28026;48.562;14.440;2023-04-07T04:57:05;93568.00;;;8.40
41593;BMP180;28026;48.562;14.440;2023-04-07T04:59:36;93566.00;;;8.40
41593;BMP180;28026;48.562;14.440;2023-04-07T05:02:07;93573.00;;;8.50
41593;BMP180;28026;48.562;14.440;2023-04-07T05:04:38;93569.00;;;8.50
41593;BMP180;28026;48.562;14.440;2023-04-07T05:07:09;93556.00;;;8.60
41593;BMP180;28026;48.562;14.440;2023-04-07T05:09:40;93563.00;;;8.60
41593;BMP180;28026;48.562;14.440;2023-04-07T05:12:10;93570.00;;;8.70
41593;BMP180;28026;48.562;14.440;2023-04-07T05:14:41;93563.00;;;8.70
41593;BMP180;28026;48.562;14.440;2023-04-07T05:17:12;93568.00;;;8.90
41593;BMP180;28026;48.562;14.440;2023-04-07T05:19:43;93565.00;;;9.00
41593;BMP180;28026;48.562;14.440;2023-04-07T05:22:14;93559.00;;;9.10
41593;BMP180;28026;48.562;14.440;2023-04-07T05:24:45;93564.00;;;9.10
41593;BMP180;28026;48.562;14.440;2023-04-07T05:27:16;93562.00;;;9.20
41593;BMP180;28026;48.562;14.440;2023-04-07T05:29:47;93555.00;;;9.30
41593;BMP180;28026;48.562;14.440;2023-04-07T05:32:18;93560.00;;;9.30
41593;BMP180;28026;48.562;14.440;2023-04-07T05:34:49;93560.00;;;9.40
41593;BMP180;28026;48.562;14.440;2023-04-07T05:37:20;93563.00;;;9.40
41593;BMP180;28026;48.562;14.440;2023-04-07T05:39:51;93555.00;;;9.50
41593;BMP180;28026;48.562;14.440;2023-04-07T05:42:22;93556.00;;;9.50
41593;BMP180;28026;48.562;14.440;2023-04-07T05:44:54;93557.00;;;9.60
41593;BMP180;28026;48.562;14.440;2023-04-07T05:47:25;93551.00;;;9.70
41593;BMP180;28026;48.562;14.440;2023-04-07T05:49:56;93558.00;;;9.70
41593;BMP180;28026;48.562;14.440;2023-04-07T05:52:27;93562.00;;;9.80
41593;BMP180;28026;48.562;14.440;2023-04-07T05:54:58;93562.00;;;9.90
41593;BMP180;28026;48.562;14.440;2023-04-07T05:57:29;93558.00;;;9.90
41593;BMP180;28026;48.562;14.440;2023-04-07T06:00:00;93564.00;;;10.00
41593;BMP180;28026;48.562;14.440;2023-04-07T06:02:31;93570.00;;;10.10
41593;BMP180;28026;48.562;14.440;2023-04-07T06:05:02;93567.00;;;10.20
41593;BMP180;28026;48.562;14.440;2023-04-07T06:07:33;93564.00;;;10.30
41593;BMP180;28026;48.562;14.440;2023-04-07T06:10:04;93562.00;;;10.40
41593;BMP180;28026;48.562;14.440;2023-04-07T06:12:36;93568.00;;;10.50
41593;BMP180;28026;48.562;14.440;2023-04-07T06:15:07;93578.00;;;10.60
41593;BMP180;28026;48.562;14.440;2023-04-07T06:17:38;93577.00;;;10.80
41593;BMP180;28026;48.562;14.440;2023-04-07T06:20:09;93566.00;;;10.80
41593;BMP180;28026;48.562;14.440;2023-04-07T06:22:41;93562.00;;;10.90
41593;BMP180;28026;48.562;14.440;2023-04-07T06:25:12;93563.00;;;11.00
41593;BMP180;28026;48.562;14.440;2023-04-07T06:27:43;93560.00;;;11.10
41593;BMP180;28026;48.562;14.440;2023-04-07T06:30:14;93557.00;;;11.30
41593;BMP180;28026;48.562;14.440;2023-04-07T06:32:45;93560.00;;;11.50
41593;BMP180;28026;48.562;14.440;2023-04-07T06:35:16;93567.00;;;11.70
41593;BMP180;28026;48.562;14.440;2023-04-07T06:37:47;93570.00;;;11.80
41593;BMP180;28026;48.562;14.440;2023-04-07T06:40:18;93566.00;;;11.90
41593;BMP180;28026;48.562;14.440;2023-04-07T06:42:49;93568.00;;;12.00
41593;BMP180;28026;48.562;14.440;2023-04-07T06:45:21;93572.00;;;12.20
41593;BMP180;28026;48.562;14.440;2023-04-07T06:47:52;93566.00;;;12.40
41593;BMP180;28026;48.562;14.440;2023-04-07T06:50:22;93569.00;;;12.60
41593;BMP180;28026;48.562;14.440;2023-04-07T06:52:53;93567.00;;;12.80
41593;BMP180;28026;48.562;14.440;2023-04-07T06:55:24;93559.00;;;12.90
41593;BMP180;28026;48.562;14.440;2023-04-07T06:57:56;93569.00;;;13.00
41593;BMP180;28026;48.562;14.440;2023-04-07T07:00:27;93573.00;;;13.10
41593;BMP180;28026;48.562;14.440;2023-04-07T07:03:00;93569.00;;;13.20
41593;BMP180;28026;48.562;14.440;2023-04-07T07:05:31;93568.00;;;13.30
41593;BMP180;28026;48.562;14.440;2023-04-07T07:08:02;93562.00;;;13.40
41593;BMP180;28026;48.562;14.440;2023-04-07T07:10:33;93562.00;;;13.60
41593;BMP180;28026;48.562;14.440;2023-04-07T07:13:04;93567.00;;;13.70
41593;BMP180;28026;48.562;14.440;2023-04-07T07:15:35;93574.00;;;13.80
41593;BMP180;28026;48.562;14.440;2023-04-07T07:18:06;93571.00;;;13.80
41593;BMP180;28026;48.562;14.440;2023-04-07T07:20:37;93572.00;;;13.90
41593;BMP180;28026;48.562;14.440;2023-04-07T07:23:08;93575.00;;;14.00
41593;BMP180;28026;48.562;14.440;2023-04-07T07:25:39;93573.00;;;14.00
41593;BMP180;28026;48.562;14.440;2023-04-07T07:28:10;93562.00;;;14.00
41593;BMP180;28026;48.562;14.440;2023-04-07T07:30:41;93570.00;;;14.10
41593;BMP180;28026;48.562;14.440;2023-04-07T07:33:11;93572.00;;;14.10
41593;BMP180;28026;48.562;14.440;2023-04-07T07:35:42;93579.00;;;14.20
41593;BMP180;28026;48.562;14.440;2023-04-07T07:38:13;93580.00;;;14.40
41593;BMP180;28026;48.562;14.440;2023-04-07T07:40:44;93573.00;;;14.50
41593;BMP180;28026;48.562;14.440;2023-04-07T07:43:16;93573.00;;;14.50
41593;BMP180;28026;48.562;14.440;2023-04-07T07:45:47;93569.00;;;14.60
41593;BMP180;28026;48.562;14.440;2023-04-07T07:48:18;93580.00;;;14.80
41593;BMP180;28026;48.562;14.440;2023-04-07T07:50:50;93571.00;;;15.00
41593;BMP180;28026;48.562;14.440;2023-04-07T07:53:22;93583.00;;;15.10
41593;BMP180;28026;48.562;14.440;2023-04-07T07:55:53;93580.00;;;15.20
41593;BMP180;28026;48.562;14.440;2023-04-07T07:58:25;93584.00;;;15.40
41593;BMP180;28026;48.562;14.440;2023-04-07T08:00:56;93574.00;;;15.50
41593;BMP180;28026;48.562;14.440;2023-04-07T08:03:27;93574.00;;;15.60
41593;BMP180;28026;48.562;14.440;2023-04-07T08:05:58;93577.00;;;15.70
41593;BMP180;28026;48.562;14.440;2023-04-07T08:08:29;93574.00;;;15.90
41593;BMP180;28026;48.562;14.440;2023-04-07T08:11:00;93573.00;;;16.00
41593;BMP180;28026;48.562;14.440;2023-04-07T08:13:31;93578.00;;;16.10
41593;BMP180;28026;48.562;14.440;2023-04-07T08:16:02;93582.00;;;16.30
41593;BMP180;28026;48.562;14.440;2023-04-07T08:18:33;93584.00;;;16.40
41593;BMP180;28026;48.562;14.440;2023-04-07T08:21:05;93579.00;;;16.50
41593;BMP180;28026;48.562;14.440;2023-04-07T08:23:36;93582.00;;;16.60
41593;BMP180;28026;48.562;14.440;2023-04-07T08:26:07;93577.00;;;16.70
41593;BMP180;28026;48.562;14.440;2023-04-07T08:28:38;93579.00;;;16.80
41593;BMP180;28026;48.562;14.440;2023-04-07T08:31:09;93574.00;;;16.80
41593;BMP180;28026;48.562;14.440;2023-04-07T08:33:40;93574.00;;;16.80
41593;BMP180;28026;48.562;14.440;2023-04-07T08:36:11;93571.00;;;17.00
41593;BMP180;28026;48.562;14.440;2023-04-07T08:38:42;93579.00;;;17.10
41593;BMP180;28026;48.562;14.440;2023-04-07T08:41:20;93573.00;;;17.30
41593;BMP180;28026;48.562;14.440;2023-04-07T08:44:00;93574.00;;;17.50
41593;BMP180;28026;48.562;14.440;2023-04-07T08:46:32;93567.00;;;17.70
41593;BMP180;28026;48.562;14.440;2023-04-07T08:49:09;93559.00;;;17.90
41593;BMP180;28026;48.562;14.440;2023-04-07T08:51:46;93573.00;;;18.10
41593;BMP180;28026;48.562;14.440;2023-04-07T08:54:18;93563.00;;;18.20
41593;BMP180;28026;48.562;14.440;2023-04-07T08:56:51;93570.00;;;18.30
41593;BMP180;28026;48.562;14.440;2023-04-07T08:59:24;93560.00;;;18.40
41593;BMP180;28026;48.562;14.440;2023-04-07T09:01:58;93567.00;;;18.50
41593;BMP180;28026;48.562;14.440;2023-04-07T09:04:30;93560.00;;;18.50
41593;BMP180;28026;48.562;14.440;2023-04-07T09:07:01;93565.00;;;18.40
41593;BMP180;28026;48.562;14.440;2023-04-07T09:09:32;93564.00;;;18.30
41593;BMP180;28026;48.562;14.440;2023-04-07T09:12:03;93557.00;;;18.20
41593;BMP180;28026;48.562;14.440;2023-04-07T09:14:34;93569.00;;;18.40
41593;BMP180;28026;48.562;14.440;2023-04-07T09:17:05;93566.00;;;18.50
41593;BMP180;28026;48.562;14.440;2023-04-07T09:19:36;93564.00;;;18.60
41593;BMP180;28026;48.562;14.440;2023-04-07T09:22:06;93566.00;;;18.70
41593;BMP180;28026;48.562;14.440;2023-04-07T09:24:41;93559.00;;;18.70
41593;BMP180;28026;48.562;14.440;2023-04-07T09:27:14;93557.00;;;18.90
41593;BMP180;28026;48.562;14.440;2023-04-07T09:29:47;93561.00;;;18.90
41593;BMP180;28026;48.562;14.440;2023-04-07T09:32:38;93556.00;;;18.80
41593;BMP180;28026;48.562;14.440;2023-04-07T09:35:10;93559.00;;;18.70
41593;BMP180;28026;48.562;14.440;2023-04-07T09:37:41;93545.00;;;18.50
41593;BMP180;28026;48.562;14.440;2023-04-07T09:40:25;93548.00;;;18.50
41593;BMP180;28026;48.562;14.440;2023-04-07T09:42:57;93542.00;;;18.80
41593;BMP180;28026;48.562;14.440;2023-04-07T09:45:29;93545.00;;;19.20
41593;BMP180;28026;48.562;14.440;2023-04-07T09:48:27;93548.00;;;19.30
41593;BMP180;28026;48.562;14.440;2023-04-07T09:51:15;93545.00;;;19.10
41593;BMP180;28026;48.562;14.440;2023-04-07T09:53:50;93541.00;;;19.10
41593;BMP180;28026;48.562;14.440;2023-04-07T09:56:21;93537.00;;;19.10
41593;BMP180;28026;48.562;14.440;2023-04-07T09:58:52;93538.00;;;19.30
41593;BMP180;28026;48.562;14.440;2023-04-07T10:01:23;93534.00;;;19.40
41593;BMP180;28026;48.562;14.440;2023-04-07T10:03:54;93520.00;;;19.10
41593;BMP180;28026;48.562;14.440;2023-04-07T10:06:25;93529.00;;;19.00
41593;BMP180;28026;48.562;14.440;2023-04-07T10:08:57;93530.00;;;18.90
41593;BMP180;28026;48.562;14.440;2023-04-07T10:11:28;93527.00;;;19.00
41593;BMP180;28026;48.562;14.440;2023-04-07T10:13:59;93517.00;;;19.20
41593;BMP180;28026;48.562;14.440;2023-04-07T10:16:31;93505.00;;;19.50
41593;BMP180;28026;48.562;14.440;2023-04-07T10:19:04;93516.00;;;19.60
41593;BMP180;28026;48.562;14.440;2023-04-07T10:21:40;93521.00;;;19.90
41593;BMP180;28026;48.562;14.440;2023-04-07T10:30:31;93515.00;;;19.80
41593;BMP180;28026;48.562;14.440;2023-04-07T10:33:03;93504.00;;;19.70
41593;BMP180;28026;48.562;14.440;2023-04-07T10:36:06;93505.00;;;19.60
41593;BMP180;28026;48.562;14.440;2023-04-07T10:38:37;93516.00;;;19.30
41593;BMP180;28026;48.562;14.440;2023-04-07T10:41:34;93507.00;;;19.30
41593;BMP180;28026;48.562;14.440;2023-04-07T10:47:12;93493.00;;;19.50
41593;BMP180;28026;48.562;14.440;2023-04-07T10:53:13;93506.00;;;19.30
41593;BMP180;28026;48.562;14.440;2023-04-07T10:55:45;93507.00;;;19.60
41593;BMP180;28026;48.562;14.440;2023-04-07T10:58:37;93506.00;;;19.80
41593;BMP180;28026;48.562;14.440;2023-04-07T11:03:51;93491.00;;;20.10
41593;BMP180;28026;48.562;14.440;2023-04-07T11:06:24;93510.00;;;20.30
41593;BMP180;28026;48.562;14.440;2023-04-07T11:08:56;93505.00;;;20.50
41593;BMP180;28026;48.562;14.440;2023-04-07T11:11:39;93500.00;;;20.60
41593;BMP180;28026;48.562;14.440;2023-04-07T11:14:31;93497.00;;;20.40
41593;BMP180;28026;48.562;14.440;2023-04-07T11:17:14;93489.00;;;20.50
41593;BMP180;28026;48.562;14.440;2023-04-07T11:19:53;93493.00;;;20.70
41593;BMP180;28026;48.562;14.440;2023-04-07T11:22:25;93493.00;;;20.90
41593;BMP180;28026;48.562;14.440;2023-04-07T11:24:56;93491.00;;;21.00
41593;BMP180;28026;48.562;14.440;2023-04-07T11:27:28;93477.00;;;21.10
41593;BMP180;28026;48.562;14.440;2023-04-07T11:29:59;93496.00;;;21.20
41593;BMP180;28026;48.562;14.440;2023-04-07T11:32:30;93498.00;;;21.30
41593;BMP180;28026;48.562;14.440;2023-04-07T11:35:06;93487.00;;;21.50
41593;BMP180;28026;48.562;14.440;2023-04-07T11:37:37;93486.00;;;21.80
41593;BMP180;28026;48.562;14.440;2023-04-07T11:40:09;93484.00;;;22.10
41593;BMP180;28026;48.562;14.440;2023-04-07T11:42:41;93487.00;;;22.10
41593;BMP180;28026;48.562;14.440;2023-04-07T11:45:17;93489.00;;;21.90
41593;BMP180;28026;48.562;14.440;2023-04-07T11:47:50;93490.00;;;21.80
41593;BMP180;28026;48.562;14.440;2023-04-07T11:50:40;93486.00;;;22.10
41593;BMP180;28026;48.562;14.440;2023-04-07T11:53:12;93490.00;;;22.60
41593;BMP180;28026;48.562;14.440;2023-04-07T11:55:43;93480.00;;;23.10
41593;BMP180;28026;48.562;14.440;2023-04-07T11:58:13;93468.00;;;23.60
41593;BMP180;28026;48.562;14.440;2023-04-07T12:00:56;93475.00;;;23.90
41593;BMP180;28026;48.562;14.440;2023-04-07T12:03:28;93478.00;;;23.80
41593;BMP180;28026;48.562;14.440;2023-04-07T12:06:03;93479.00;;;23.70
41593;BMP180;28026;48.562;14.440;2023-04-07T12:08:40;93463.00;;;23.60
41593;BMP180;28026;48.562;14.440;2023-04-07T12:11:13;93464.00;;;23.40
41593;BMP180;28026;48.562;14.440;2023-04-07T12:13:44;93469.00;;;23.30
41593;BMP180;28026;48.562;14.440;2023-04-07T12:16:15;93478.00;;;23.20
41593;BMP180;28026;48.562;14.440;2023-04-07T12:18:46;93479.00;;;23.20
41593;BMP180;28026;48.562;14.440;2023-04-07T12:21:18;93473.00;;;23.30
41593;BMP180;28026;48.562;14.440;2023-04-07T12:23:49;93477.00;;;23.20
41593;BMP180;28026;48.562;14.440;2023-04-07T12:26:21;93473.00;;;23.20
41593;BMP180;28026;48.562;14.440;2023-04-07T12:28:52;93466.00;;;23.00
41593;BMP180;28026;48.562;14.440;2023-04-07T12:31:23;93462.00;;;23.00
41593;BMP180;28026;48.562;14.440;2023-04-07T12:33:54;93472.00;;;23.20
41593;BMP180;28026;48.562;14.440;2023-04-07T12:36:25;93466.00;;;23.40
41593;BMP180;28026;48.562;14.440;2023-04-07T12:38:57;93470.00;;;23.50
41593;BMP180;28026;48.562;14.440;2023-04-07T12:41:28;93462.00;;;23.50
41593;BMP180;28026;48.562;14.440;2023-04-07T12:43:59;93469.00;;;23.40
41593;BMP180;28026;48.562;14.440;2023-04-07T12:46:30;93470.00;;;23.30
41593;BMP180;28026;48.562;14.440;2023-04-07T12:49:01;93466.00;;;23.40
41593;BMP180;28026;48.562;14.440;2023-04-07T12:51:32;93462.00;;;23.40
41593;BMP180;28026;48.562;14.440;2023-04-07T12:54:03;93466.00;;;23.40
41593;BMP180;28026;48.562;14.440;2023-04-07T12:56:34;93473.00;;;23.30
41593;BMP180;28026;48.562;14.440;2023-04-07T12:59:05;93464.00;;;23.30
41593;BMP180;28026;48.562;14.440;2023-04-07T13:01:36;93473.00;;;23.30
41593;BMP180;28026;48.562;14.440;2023-04-07T13:04:08;93450.00;;;23.20
41593;BMP180;28026;48.562;14.440;2023-04-07T13:06:39;93465.00;;;23.10
41593;BMP180;28026;48.562;14.440;2023-04-07T13:09:10;93471.00;;;22.90
41593;BMP180;28026;48.562;14.440;2023-04-07T13:11:41;93468.00;;;22.80
41593;BMP180;28026;48.562;14.440;2023-04-07T13:14:12;93458.00;;;22.80
41593;BMP180;28026;48.562;14.440;2023-04-07T13:16:42;93464.00;;;22.80
41593;BMP180;28026;48.562;14.440;2023-04-07T13:19:14;93466.00;;;22.80
41593;BMP180;28026;48.562;14.440;2023-04-07T13:21:45;93464.00;;;22.80
41593;BMP180;28026;48.562;14.440;2023-04-07T13:24:15;93468.00;;;22.80
41593;BMP180;28026;48.562;14.440;2023-04-07T13:26:46;93472.00;;;22.80
41593;BMP180;28026;48.562;14.440;2023-04-07T13:29:17;93465.00;;;22.80
41593;BMP180;28026;48.562;14.440;2023-04-07T13:31:49;93460.00;;;22.60
41593;BMP180;28026;48.562;14.440;2023-04-07T13:34:19;93462.00;;;22.50
41593;BMP180;28026;48.562;14.440;2023-04-07T13:36:50;93457.00;;;22.40
41593;BMP180;28026;48.562;14.440;2023-04-07T13:39:21;93464.00;;;22.30
41593;BMP180;28026;48.562;14.440;2023-04-07T13:41:52;93459.00;;;22.20
41593;BMP180;28026;48.562;14.440;2023-04-07T13:44:25;93460.00;;;22.20
41593;BMP180;28026;48.562;14.440;2023-04-07T13:46:56;93448.00;;;22.10
41593;BMP180;28026;48.562;14.440;2023-04-07T13:49:28;93452.00;;;22.10
41593;BMP180;28026;48.562;14.440;2023-04-07T13:51:59;93458.00;;;22.00
41593;BMP180;28026;48.562;14.440;2023-04-07T13:54:30;93446.00;;;21.90
41593;BMP180;28026;48.562;14.440;2023-04-07T13:57:01;93459.00;;;21.70
41593;BMP180;28026;48.562;14.440;2023-04-07T13:59:31;93455.00;;;21.70
41593;BMP180;28026;48.562;14.440;2023-04-07T14:02:02;93463.00;;;21.70
41593;BMP180;28026;48.562;14.440;2023-04-07T14:04:33;93448.00;;;21.60
41593;BMP180;28026;48.562;14.440;2023-04-07T14:07:04;93455.00;;;21.70
41593;BMP180;28026;48.562;14.440;2023-04-07T14:09:35;93456.00;;;21.70
41593;BMP180;28026;48.562;14.440;2023-04-07T14:12:07;93451.00;;;21.80
41593;BMP180;28026;48.562;14.440;2023-04-07T14:14:38;93454.00;;;21.70
41593;BMP180;28026;48.562;14.440;2023-04-07T14:17:09;93455.00;;;21.50
41593;BMP180;28026;48.562;14.440;2023-04-07T14:19:40;93456.00;;;21.40
41593;BMP180;28026;48.562;14.440;2023-04-07T14:22:13;93447.00;;;21.30
41593;BMP180;28026;48.562;14.440;2023-04-07T14:24:44;93447.00;;;21.20
41593;BMP180;28026;48.562;14.440;2023-04-07T14:27:15;93438.00;;;21.20
41593;BMP180;28026;48.562;14.440;2023-04-07T14:29:50;93447.00;;;21.20
41593;BMP180;28026;48.562;14.440;2023-04-07T14:32:21;93434.00;;;21.20
41593;BMP180;28026;48.562;14.440;2023-04-07T14:34:51;93450.00;;;21.30
41593;BMP180;28026;48.562;14.440;2023-04-07T14:37:22;93449.00;;;21.30
41593;BMP180;28026;48.562;14.440;2023-04-07T14:39:55;93447.00;;;21.30
41593;BMP180;28026;48.562;14.440;2023-04-07T14:42:27;93447.00;;;21.20
41593;BMP180;28026;48.562;14.440;2023-04-07T14:44:59;93440.00;;;21.10
41593;BMP180;28026;48.562;14.440;2023-04-07T14:47:31;93446.00;;;21.00
41593;BMP180;28026;48.562;14.440;2023-04-07T14:50:02;93436.00;;;20.90